createdAt,value
2022-10-06T00:01:13.733Z,16.34
2022-10-06T00:03:41.545Z,16.42
2022-10-06T00:06:11.986Z,16.18
2022-10-06T00:08:41.005Z,15.93
2022-10-06T00:11:10.434Z,16.39
2022-10-06T00:13:37.844Z,16.24
2022-10-06T00:16:15.307Z,15.73
2022-10-06T00:18:42.395Z,16.18
2022-10-06T00:21:09.746Z,15.95
2022-10-06T00:23:37.045Z,15.99
2022-10-06T00:26:04.625Z,15.85
2022-10-06T00:28:32.267Z,16.26
2022-10-06T00:31:03.177Z,15.49
2022-10-06T00:33:30.253Z,15.85
2022-10-06T00:35:59.029Z,15.94
2022-10-06T00:38:27.524Z,16.16
2022-10-06T00:40:55.246Z,16.73
2022-10-06T00:43:44.000Z,16.81
2022-10-06T00:46:24.223Z,17.08
2022-10-06T00:49:30.620Z,16.37
2022-10-06T00:52:07.429Z,16.44
2022-10-06T00:54:36.301Z,15.97
2022-10-06T00:57:05.092Z,16.45
2022-10-06T00:59:33.102Z,16.82
2022-10-06T01:02:03.439Z,16.72
2022-10-06T01:04:35.565Z,16.54
2022-10-06T01:07:03.537Z,16.51
2022-10-06T01:09:31.558Z,16.42
2022-10-06T01:12:04.341Z,17.31
2022-10-06T01:14:32.150Z,17.04
2022-10-06T01:17:29.714Z,17.23
2022-10-06T01:20:09.269Z,17.27
2022-10-06T01:22:55.513Z,16.56
2022-10-06T01:25:23.207Z,16.68
2022-10-06T01:27:53.965Z,17.22
2022-10-06T01:30:52.841Z,16.31
2022-10-06T01:33:22.573Z,16.20
2022-10-06T01:35:52.788Z,16.07
2022-10-06T01:38:21.867Z,16.73
2022-10-06T01:40:53.670Z,16.90
2022-10-06T01:43:21.426Z,16.89
2022-10-06T01:45:57.048Z,16.72
2022-10-06T01:48:25.786Z,17.02
2022-10-06T01:50:54.881Z,17.60
2022-10-06T01:53:22.668Z,17.76
2022-10-06T01:55:49.872Z,17.58
2022-10-06T01:58:21.081Z,17.42
2022-10-06T02:00:48.462Z,17.67
2022-10-06T02:03:15.363Z,17.90
2022-10-06T02:05:42.491Z,18.20
2022-10-06T02:08:11.983Z,18.31
2022-10-06T02:10:39.455Z,17.63
2022-10-06T02:13:14.740Z,17.36
2022-10-06T02:15:41.760Z,17.80
2022-10-06T02:18:08.864Z,17.57
2022-10-06T02:20:36.349Z,17.77
2022-10-06T02:23:03.463Z,17.96
2022-10-06T02:25:30.389Z,17.94
2022-10-06T02:27:57.398Z,17.88
2022-10-06T02:30:24.498Z,17.84
2022-10-06T02:32:52.201Z,17.96
2022-10-06T02:35:20.119Z,17.79
2022-10-06T02:37:48.441Z,17.96
2022-10-06T02:40:18.388Z,18.13
2022-10-06T02:42:46.073Z,18.13
2022-10-06T02:45:17.004Z,18.11
2022-10-06T02:47:45.046Z,18.04
2022-10-06T02:50:13.136Z,18.18
2022-10-06T02:52:42.694Z,18.28
2022-10-06T02:55:11.220Z,18.18
2022-10-06T02:57:38.432Z,18.28
2022-10-06T03:00:07.648Z,18.24
2022-10-06T03:02:35.506Z,17.99
2022-10-06T03:05:02.720Z,18.27
2022-10-06T03:07:29.653Z,17.97
2022-10-06T03:09:57.725Z,18.03
2022-10-06T03:12:25.939Z,17.83
2022-10-06T03:14:52.920Z,17.71
2022-10-06T03:17:20.557Z,17.82
2022-10-06T03:19:52.605Z,17.62
2022-10-06T03:22:19.580Z,17.79
2022-10-06T03:24:52.525Z,17.61
2022-10-06T03:27:21.113Z,17.51
2022-10-06T03:29:49.010Z,17.60
2022-10-06T03:32:16.392Z,17.60
2022-10-06T03:34:44.124Z,17.58
2022-10-06T03:37:14.355Z,17.59
2022-10-06T03:39:41.662Z,18.03
2022-10-06T03:42:08.742Z,17.66
2022-10-06T03:44:35.822Z,17.81
2022-10-06T03:47:03.747Z,18.20
2022-10-06T03:49:32.275Z,18.25
2022-10-06T03:51:59.381Z,18.16
2022-10-06T03:54:30.751Z,18.05
2022-10-06T03:56:57.840Z,17.88
2022-10-06T03:59:24.901Z,17.74
2022-10-06T04:01:53.294Z,17.57
2022-10-06T04:04:28.205Z,17.56
2022-10-06T04:07:00.697Z,17.34
2022-10-06T04:09:27.823Z,17.74
2022-10-06T04:11:56.064Z,17.34
2022-10-06T04:14:22.971Z,17.29
2022-10-06T04:16:51.277Z,17.29
2022-10-06T04:19:33.762Z,17.34
2022-10-06T04:22:00.689Z,17.47
2022-10-06T04:24:28.944Z,17.41
2022-10-06T04:27:17.927Z,17.48
2022-10-06T04:29:51.232Z,17.77
2022-10-06T04:32:19.383Z,17.84
2022-10-06T04:34:46.279Z,17.69
2022-10-06T04:37:13.725Z,17.80
2022-10-06T04:39:42.231Z,17.58
2022-10-06T04:42:09.768Z,17.94
2022-10-06T04:44:36.980Z,17.92
2022-10-06T04:47:04.665Z,18.04
2022-10-06T04:49:31.988Z,17.84
2022-10-06T04:51:59.159Z,17.77
2022-10-06T04:54:32.707Z,17.62
2022-10-06T04:57:01.009Z,17.75
2022-10-06T04:59:48.556Z,17.61
2022-10-06T05:02:17.268Z,17.77
2022-10-06T05:04:45.805Z,17.69
2022-10-06T05:07:15.199Z,17.38
2022-10-06T05:09:42.491Z,17.13
2022-10-06T05:12:12.377Z,17.56
2022-10-06T05:14:40.343Z,17.37
2022-10-06T05:17:07.268Z,17.28
2022-10-06T05:19:36.987Z,17.05
2022-10-06T05:22:04.342Z,17.07
2022-10-06T05:24:32.748Z,17.25
2022-10-06T05:27:02.128Z,17.22
2022-10-06T05:29:31.260Z,17.23
2022-10-06T05:31:58.878Z,17.32
2022-10-06T05:34:27.896Z,17.64
2022-10-06T05:36:56.301Z,17.17
2022-10-06T05:39:23.335Z,17.27
2022-10-06T05:41:55.361Z,17.40
2022-10-06T05:44:22.331Z,17.43
2022-10-06T05:46:49.575Z,17.31
2022-10-06T05:49:16.942Z,17.49
2022-10-06T05:52:09.941Z,17.41
2022-10-06T05:54:37.194Z,17.42
2022-10-06T05:57:06.075Z,17.61
2022-10-06T05:59:34.280Z,17.75
2022-10-06T06:02:03.078Z,17.49
2022-10-06T06:04:38.028Z,17.54
2022-10-06T06:07:05.822Z,17.44
2022-10-06T06:09:33.480Z,17.59
2022-10-06T06:12:02.597Z,17.67
2022-10-06T06:15:06.190Z,17.61
2022-10-06T06:17:38.613Z,17.36
2022-10-06T06:20:07.521Z,17.59
2022-10-06T06:22:35.840Z,17.41
2022-10-06T06:25:03.932Z,17.54
2022-10-06T06:27:34.907Z,17.71
2022-10-06T06:30:03.094Z,17.54
2022-10-06T06:32:31.184Z,17.51
2022-10-06T06:34:59.019Z,17.45
2022-10-06T06:37:26.191Z,17.32
2022-10-06T06:39:53.082Z,17.50
2022-10-06T06:42:21.794Z,17.55
2022-10-06T06:44:48.957Z,17.54
2022-10-06T06:47:36.451Z,17.56
2022-10-06T06:50:10.149Z,17.69
2022-10-06T06:52:38.891Z,17.90
2022-10-06T06:55:08.329Z,17.94
2022-10-06T06:57:35.383Z,18.09
2022-10-06T07:00:08.534Z,18.08
2022-10-06T07:02:37.996Z,17.92
2022-10-06T07:05:05.658Z,18.07
2022-10-06T07:07:32.973Z,18.41
2022-10-06T07:10:00.761Z,18.32
2022-10-06T07:12:29.552Z,18.21
2022-10-06T07:15:16.588Z,17.89
2022-10-06T07:18:05.340Z,18.33
2022-10-06T07:20:51.241Z,18.53
2022-10-06T07:23:39.916Z,18.79
2022-10-06T07:26:11.870Z,18.97
2022-10-06T07:28:42.495Z,18.54
2022-10-06T07:31:10.846Z,18.21
2022-10-06T07:33:40.759Z,18.10
2022-10-06T07:36:09.707Z,18.29
2022-10-06T07:38:37.588Z,17.74
2022-10-06T07:41:18.817Z,17.96
2022-10-06T07:43:50.125Z,18.24
2022-10-06T07:46:19.616Z,18.49
2022-10-06T07:49:07.226Z,18.14
2022-10-06T07:51:34.292Z,18.23
2022-10-06T07:54:02.676Z,18.29
2022-10-06T07:56:50.137Z,18.37
2022-10-06T07:59:20.182Z,18.51
2022-10-06T08:01:47.628Z,18.50
2022-10-06T08:04:14.723Z,18.45
2022-10-06T08:06:42.420Z,18.59
2022-10-06T08:09:10.336Z,19.10
2022-10-06T08:11:37.214Z,18.83
2022-10-06T08:14:04.501Z,18.81
2022-10-06T08:16:31.470Z,19.26
2022-10-06T08:21:47.412Z,19.53
2022-10-06T08:24:14.465Z,19.76
2022-10-06T08:26:41.722Z,19.07
2022-10-06T08:29:08.637Z,19.15
2022-10-06T08:31:35.736Z,19.30
2022-10-06T08:34:12.050Z,19.40
2022-10-06T08:36:39.561Z,19.35
2022-10-06T08:39:07.257Z,19.26
2022-10-06T08:41:39.839Z,19.45
2022-10-06T08:44:15.815Z,19.42
2022-10-06T08:47:01.423Z,19.79
2022-10-06T08:49:38.433Z,18.89
2022-10-06T08:52:35.620Z,18.84
2022-10-06T08:55:27.561Z,19.64
2022-10-06T08:58:23.083Z,19.12
2022-10-06T09:00:50.885Z,19.49
2022-10-06T09:03:23.887Z,19.29
2022-10-06T09:06:03.970Z,19.60
2022-10-06T09:08:53.581Z,19.28
2022-10-06T09:11:43.732Z,19.62
2022-10-06T09:14:21.513Z,19.87
2022-10-06T09:16:55.126Z,19.58
2022-10-06T09:19:33.893Z,19.75
2022-10-06T09:22:04.817Z,20.00
2022-10-06T09:24:42.427Z,19.63
2022-10-06T09:27:28.740Z,19.64
2022-10-06T09:29:56.043Z,19.84
2022-10-06T09:32:24.288Z,19.44
2022-10-06T09:35:02.655Z,19.31
2022-10-06T09:37:49.737Z,19.71
2022-10-06T09:40:36.627Z,19.77
2022-10-06T09:43:22.084Z,19.73
2022-10-06T09:45:51.520Z,19.55
2022-10-06T09:48:25.104Z,19.77
2022-10-06T09:51:08.508Z,19.31
2022-10-06T09:53:37.640Z,19.66
2022-10-06T09:56:10.552Z,19.35
2022-10-06T09:58:39.481Z,20.00
2022-10-06T10:01:09.567Z,19.80
2022-10-06T10:04:20.571Z,19.95
2022-10-06T10:06:48.023Z,19.79
2022-10-06T10:09:21.768Z,19.51
2022-10-06T10:12:24.693Z,19.84
2022-10-06T10:14:56.492Z,20.33
2022-10-06T10:17:49.664Z,20.03
2022-10-06T10:20:34.109Z,20.39
2022-10-06T10:23:30.113Z,19.80
2022-10-06T10:26:26.275Z,20.59
2022-10-06T10:29:01.696Z,20.45
2022-10-06T10:31:49.802Z,20.92
2022-10-06T10:34:42.073Z,21.04
2022-10-06T10:37:33.687Z,20.69
2022-10-06T10:40:36.091Z,20.61
2022-10-06T10:43:24.561Z,20.82
2022-10-06T10:46:28.691Z,20.54
2022-10-06T10:49:18.239Z,20.81
2022-10-06T10:52:13.840Z,20.52
2022-10-06T10:55:14.278Z,20.59
2022-10-06T10:57:44.126Z,20.58
2022-10-06T11:00:25.943Z,21.20
2022-10-06T11:02:56.823Z,21.10
2022-10-06T11:06:03.472Z,20.80
2022-10-06T11:09:08.686Z,20.89
2022-10-06T11:12:03.656Z,20.80
2022-10-06T11:15:01.927Z,20.89
2022-10-06T11:17:44.838Z,21.04
2022-10-06T11:20:45.087Z,21.16
2022-10-06T11:23:39.553Z,21.20
2022-10-06T11:26:58.346Z,20.96
2022-10-06T11:29:37.457Z,21.13
2022-10-06T11:32:40.197Z,21.59
2022-10-06T11:35:22.068Z,21.22
2022-10-06T11:38:16.115Z,21.47
2022-10-06T11:41:18.394Z,21.05
2022-10-06T11:44:13.543Z,21.57
2022-10-06T11:46:51.328Z,22.08
2022-10-06T11:49:31.628Z,21.74
2022-10-06T11:52:08.630Z,21.75
2022-10-06T11:54:47.657Z,21.79
2022-10-06T11:57:29.329Z,21.73
2022-10-06T12:00:17.439Z,21.39
2022-10-06T12:02:47.121Z,21.46
2022-10-06T12:05:54.236Z,22.23
2022-10-06T12:08:08.876Z,22.48
2022-10-06T12:10:36.002Z,22.39
2022-10-06T12:14:01.230Z,22.12
2022-10-06T12:19:42.285Z,21.64
2022-10-06T12:22:26.978Z,21.70
2022-10-06T12:25:15.958Z,20.97
2022-10-06T12:28:19.579Z,21.53
2022-10-06T12:31:21.251Z,22.49
2022-10-06T12:33:50.126Z,22.26
2022-10-06T12:36:20.364Z,22.44
2022-10-06T12:39:20.561Z,22.19
2022-10-06T12:42:18.409Z,21.85
2022-10-06T12:44:49.900Z,22.59
2022-10-06T12:47:34.898Z,21.99
2022-10-06T12:50:12.116Z,21.86
2022-10-06T12:52:59.117Z,21.51
2022-10-06T12:55:46.117Z,21.73
2022-10-06T12:58:32.279Z,22.83
2022-10-06T13:01:09.022Z,22.59
2022-10-06T13:03:37.347Z,22.38
2022-10-06T13:06:08.735Z,22.86
2022-10-06T13:08:38.509Z,23.30
2022-10-06T13:11:27.291Z,22.52
2022-10-06T13:14:08.031Z,22.73
2022-10-06T13:16:41.061Z,22.52
2022-10-06T13:19:28.216Z,23.23
2022-10-06T13:21:55.448Z,22.81
2022-10-06T13:24:27.089Z,22.94
2022-10-06T13:26:54.590Z,22.99
2022-10-06T13:29:25.656Z,22.60
2022-10-06T13:31:55.703Z,22.77
2022-10-06T13:34:43.877Z,22.02
2022-10-06T13:37:15.724Z,23.27
2022-10-06T13:39:43.076Z,23.24
2022-10-06T13:42:17.763Z,22.89
2022-10-06T13:44:56.635Z,22.60
2022-10-06T13:47:27.083Z,22.46
2022-10-06T13:50:06.980Z,21.72
2022-10-06T13:52:37.095Z,22.25
2022-10-06T13:55:15.177Z,22.45
2022-10-06T13:57:47.924Z,22.62
2022-10-06T14:00:15.223Z,21.48
2022-10-06T14:02:47.531Z,22.34
2022-10-06T14:05:45.890Z,22.06
2022-10-06T14:08:12.916Z,21.87
2022-10-06T14:10:48.830Z,22.21
2022-10-06T14:13:28.095Z,22.17
2022-10-06T14:16:02.150Z,22.38
2022-10-06T14:18:43.024Z,22.47
2022-10-06T14:21:36.826Z,22.48
2022-10-06T14:24:19.091Z,21.99
2022-10-06T14:26:49.812Z,22.02
2022-10-06T14:29:18.659Z,22.27
2022-10-06T14:31:46.968Z,22.28
2022-10-06T14:34:17.249Z,22.70
2022-10-06T14:36:55.117Z,21.93
2022-10-06T14:39:22.357Z,22.02
2022-10-06T14:41:49.295Z,21.86
2022-10-06T14:44:16.572Z,22.21
2022-10-06T14:46:48.244Z,21.47
2022-10-06T14:49:16.406Z,21.43
2022-10-06T14:51:44.709Z,21.72
2022-10-06T14:54:12.883Z,22.00
2022-10-06T14:56:41.314Z,21.28
2022-10-06T14:59:16.955Z,21.25
2022-10-06T15:01:44.573Z,21.48
2022-10-06T15:04:15.797Z,21.68
2022-10-06T15:07:01.736Z,21.41
2022-10-06T15:09:31.079Z,20.96
2022-10-06T15:11:59.912Z,21.71
2022-10-06T15:14:28.677Z,21.56
2022-10-06T15:16:59.282Z,21.29
2022-10-06T15:19:26.568Z,20.85
2022-10-06T15:21:53.822Z,20.91
2022-10-06T15:24:21.075Z,21.09
2022-10-06T15:27:07.134Z,21.48
2022-10-06T15:29:35.309Z,21.03
2022-10-06T15:32:04.310Z,20.56
2022-10-06T15:34:34.158Z,20.85
2022-10-06T15:37:02.033Z,20.62
2022-10-06T15:39:36.881Z,20.65
2022-10-06T15:42:04.874Z,20.70
2022-10-06T15:44:34.582Z,20.91
2022-10-06T15:47:04.114Z,20.63
2022-10-06T15:49:33.026Z,20.92
2022-10-06T15:52:03.028Z,20.88
2022-10-06T15:54:46.587Z,21.08
2022-10-06T15:57:20.390Z,20.94
2022-10-06T15:59:48.165Z,20.78
2022-10-06T16:02:17.377Z,20.93
2022-10-06T16:04:57.806Z,21.14
2022-10-06T16:07:25.009Z,20.76
2022-10-06T16:09:52.441Z,20.76
2022-10-06T16:12:22.892Z,20.46
2022-10-06T16:14:49.902Z,20.69
2022-10-06T16:17:18.232Z,20.06
2022-10-06T16:19:46.872Z,20.37
2022-10-06T16:22:17.273Z,19.91
2022-10-06T16:24:46.080Z,20.14
2022-10-06T16:27:15.869Z,20.25
2022-10-06T16:29:42.846Z,20.15
2022-10-06T16:32:09.804Z,20.21
2022-10-06T16:34:36.672Z,19.91
2022-10-06T16:37:03.976Z,19.91
2022-10-06T16:39:31.166Z,19.78
2022-10-06T16:41:58.248Z,19.74
2022-10-06T16:44:25.273Z,20.00
2022-10-06T16:46:52.408Z,19.50
2022-10-06T16:49:19.783Z,19.22
2022-10-06T16:51:46.826Z,18.89
2022-10-06T16:54:17.549Z,19.20
2022-10-06T16:56:47.569Z,18.90
2022-10-06T16:59:21.049Z,18.78
2022-10-06T17:01:49.347Z,18.71
2022-10-06T17:04:25.262Z,18.78
2022-10-06T17:06:57.147Z,18.91
2022-10-06T17:09:27.139Z,18.42
2022-10-06T17:12:00.035Z,18.66
2022-10-06T17:14:30.710Z,18.69
2022-10-06T17:16:58.793Z,18.18
2022-10-06T17:19:29.064Z,18.49
2022-10-06T17:21:59.455Z,18.36
2022-10-06T17:24:29.271Z,18.35
2022-10-06T17:26:57.273Z,18.40
2022-10-06T17:29:26.042Z,18.71
2022-10-06T17:31:56.045Z,18.24
2022-10-06T17:34:27.689Z,18.21
2022-10-06T17:36:57.694Z,18.33
2022-10-06T17:39:25.942Z,18.60
2022-10-06T17:41:53.955Z,18.17
2022-10-06T17:44:25.983Z,18.43
2022-10-06T17:46:58.249Z,18.59
2022-10-06T17:49:26.583Z,18.81
2022-10-06T17:51:55.367Z,18.03
2022-10-06T17:54:25.426Z,18.69
2022-10-06T17:56:56.790Z,18.79
2022-10-06T17:59:30.602Z,18.22
2022-10-06T18:02:04.566Z,18.46
2022-10-06T18:04:32.040Z,18.15
2022-10-06T18:06:59.032Z,18.06
2022-10-06T18:09:26.240Z,18.09
2022-10-06T18:12:03.578Z,17.79
2022-10-06T18:14:33.300Z,17.90
2022-10-06T18:17:03.771Z,18.05
2022-10-06T18:19:34.451Z,18.17
2022-10-06T18:22:16.382Z,18.28
2022-10-06T18:24:43.423Z,17.66
2022-10-06T18:27:11.428Z,17.62
2022-10-06T18:29:39.284Z,17.95
2022-10-06T18:37:46.732Z,17.96
2022-10-06T18:40:14.730Z,17.82
2022-10-06T18:42:41.982Z,17.76
2022-10-06T18:45:32.218Z,17.82
2022-10-06T18:51:33.310Z,17.89
2022-10-06T18:54:11.212Z,17.66
2022-10-06T18:56:39.522Z,17.93
2022-10-06T18:59:16.577Z,17.62
2022-10-06T19:01:46.854Z,17.96
2022-10-06T19:04:17.923Z,17.83
2022-10-06T19:06:49.879Z,17.70
2022-10-06T19:09:27.958Z,18.33
2022-10-06T19:11:57.906Z,17.87
2022-10-06T19:14:31.613Z,17.94
2022-10-06T19:17:06.530Z,18.64
2022-10-06T19:19:34.100Z,18.71
2022-10-06T19:22:03.770Z,17.94
2022-10-06T19:24:39.123Z,17.81
2022-10-06T19:27:13.323Z,17.69
2022-10-06T19:29:49.572Z,17.64
2022-10-06T19:32:21.485Z,17.89
2022-10-06T19:34:48.689Z,18.20
2022-10-06T19:37:16.010Z,18.37
2022-10-06T19:39:45.920Z,17.94
2022-10-06T19:42:34.302Z,17.71
2022-10-06T19:45:01.655Z,17.77
2022-10-06T19:47:29.163Z,17.61
2022-10-06T19:50:00.861Z,17.87
2022-10-06T19:52:31.219Z,18.10
2022-10-06T19:54:58.514Z,18.42
2022-10-06T19:57:28.394Z,17.71
2022-10-06T19:59:55.600Z,17.67
2022-10-06T20:02:23.387Z,18.13
2022-10-06T20:04:50.807Z,17.83
2022-10-06T20:07:21.535Z,17.46
2022-10-06T20:09:49.436Z,17.59
2022-10-06T20:12:19.789Z,17.58
2022-10-06T20:14:50.887Z,17.44
2022-10-06T20:17:18.156Z,17.76
2022-10-06T20:19:46.645Z,17.96
2022-10-06T20:22:14.214Z,18.33
2022-10-06T20:24:41.680Z,17.83
2022-10-06T20:27:08.965Z,18.11
2022-10-06T20:29:36.439Z,17.58
2022-10-06T20:32:05.142Z,17.28
2022-10-06T20:34:33.339Z,17.89
2022-10-06T20:37:17.682Z,18.05
2022-10-06T20:40:04.339Z,17.91
2022-10-06T20:42:36.075Z,17.85
2022-10-06T20:45:04.838Z,17.58
2022-10-06T20:47:38.951Z,17.73
2022-10-06T20:50:08.768Z,17.65
2022-10-06T20:52:38.228Z,17.30
2022-10-06T20:55:11.139Z,17.27
2022-10-06T20:57:51.143Z,17.43
2022-10-06T21:00:24.775Z,17.61
2022-10-06T21:02:51.919Z,17.61
2022-10-06T21:05:19.223Z,17.29
2022-10-06T21:07:46.863Z,17.20
2022-10-06T21:10:14.227Z,17.31
2022-10-06T21:12:42.436Z,17.72
2022-10-06T21:15:09.931Z,17.41
2022-10-06T21:17:37.024Z,17.64
2022-10-06T21:20:05.167Z,17.68
2022-10-06T21:22:32.304Z,17.82
2022-10-06T21:24:59.453Z,17.26
2022-10-06T21:27:26.732Z,17.42
2022-10-06T21:29:53.856Z,17.10
2022-10-06T21:32:21.088Z,17.01
2022-10-06T21:34:48.165Z,16.93
2022-10-06T21:37:15.269Z,17.54
2022-10-06T21:39:42.360Z,17.30
2022-10-06T21:42:09.661Z,16.76
2022-10-06T21:44:36.740Z,17.25
2022-10-06T21:47:04.118Z,17.00
2022-10-06T21:49:31.283Z,17.21
2022-10-06T21:52:03.587Z,17.23
2022-10-06T21:54:30.895Z,17.20
2022-10-06T21:56:59.395Z,17.03
2022-10-06T21:59:26.483Z,17.39
2022-10-06T22:01:54.033Z,17.21
2022-10-06T22:04:21.136Z,17.27
2022-10-06T22:06:51.333Z,17.36
2022-10-06T22:09:19.829Z,17.25
2022-10-06T22:11:47.090Z,17.36
2022-10-06T22:14:16.991Z,17.18
2022-10-06T22:16:45.291Z,17.25
2022-10-06T22:19:14.977Z,17.33
2022-10-06T22:21:45.649Z,17.65
2022-10-06T22:24:20.157Z,17.36
2022-10-06T22:26:48.588Z,17.35
2022-10-06T22:29:18.005Z,17.49
2022-10-06T22:31:47.254Z,17.14
2022-10-06T22:34:18.619Z,17.32
2022-10-06T22:36:46.372Z,17.75
2022-10-06T22:39:13.575Z,17.21
2022-10-06T22:41:41.024Z,16.94
2022-10-06T22:44:08.440Z,16.80
2022-10-06T22:46:37.973Z,16.73
2022-10-06T22:49:05.844Z,16.84
2022-10-06T22:51:33.547Z,16.75
2022-10-06T22:54:01.011Z,16.41
2022-10-06T22:56:31.979Z,16.33
2022-10-06T22:59:00.480Z,16.07
2022-10-06T23:01:29.837Z,15.64
2022-10-06T23:03:57.429Z,15.95
2022-10-06T23:06:24.912Z,15.96
2022-10-06T23:08:52.878Z,16.29
2022-10-06T23:11:22.446Z,16.27
2022-10-06T23:13:50.487Z,15.96
2022-10-06T23:16:20.258Z,16.07
2022-10-06T23:18:48.343Z,15.80
2022-10-06T23:21:22.806Z,15.81
2022-10-06T23:23:58.340Z,15.64
2022-10-06T23:26:26.898Z,15.46
2022-10-06T23:28:57.465Z,15.51
2022-10-06T23:31:29.550Z,15.54
2022-10-06T23:33:57.307Z,15.81
2022-10-06T23:36:25.155Z,15.97
2022-10-06T23:38:52.339Z,16.01
2022-10-06T23:41:20.043Z,15.81
2022-10-06T23:43:47.660Z,16.08
2022-10-06T23:46:15.476Z,15.49
2022-10-06T23:48:43.193Z,15.41
2022-10-06T23:51:14.145Z,14.77
2022-10-06T23:53:43.105Z,15.03
2022-10-06T23:56:11.496Z,15.31
2022-10-06T23:58:38.964Z,16.00
